createdAt,value
2018-06-25T00:00:10.335Z,20.90
2018-06-25T00:00:42.041Z,21.00
2018-06-25T00:01:13.846Z,21.00
2018-06-25T00:01:45.571Z,21.00
2018-06-25T00:02:17.292Z,21.00
2018-06-25T00:02:49.053Z,21.00
2018-06-25T00:03:20.757Z,21.00
2018-06-25T00:03:52.465Z,21.10
2018-06-25T00:04:24.195Z,21.10
2018-06-25T00:04:55.919Z,21.00
2018-06-25T00:05:27.634Z,21.00
2018-06-25T00:05:59.339Z,21.10
2018-06-25T00:06:31.069Z,21.00
2018-06-25T00:07:02.769Z,21.00
2018-06-25T00:07:34.479Z,21.00
2018-06-25T00:08:06.390Z,21.00
2018-06-25T00:08:38.140Z,21.10
2018-06-25T00:09:09.865Z,21.10
2018-06-25T00:09:41.586Z,21.00
2018-06-25T00:10:13.323Z,21.00
2018-06-25T00:10:45.044Z,20.90
2018-06-25T00:11:16.750Z,20.90
2018-06-25T00:11:48.467Z,20.90
2018-06-25T00:12:20.174Z,20.90
2018-06-25T00:12:51.887Z,20.90
2018-06-25T00:13:23.597Z,20.90
2018-06-25T00:13:55.321Z,20.90
2018-06-25T00:14:27.063Z,20.90
2018-06-25T00:14:58.769Z,20.90
2018-06-25T00:15:30.486Z,21.00
2018-06-25T00:16:02.205Z,20.90
2018-06-25T00:16:33.976Z,20.90
2018-06-25T00:17:05.692Z,21.00
2018-06-25T00:17:37.405Z,20.90
2018-06-25T00:18:09.136Z,20.90
2018-06-25T00:18:40.858Z,20.90
2018-06-25T00:19:12.569Z,20.90
2018-06-25T00:19:44.283Z,20.90
2018-06-25T00:20:15.989Z,20.90
2018-06-25T00:20:47.779Z,20.90
2018-06-25T00:21:19.463Z,20.90
2018-06-25T00:21:51.165Z,20.90
2018-06-25T00:22:22.888Z,20.90
2018-06-25T00:22:54.653Z,20.90
2018-06-25T00:23:26.348Z,20.90
2018-06-25T00:23:58.070Z,20.90
2018-06-25T00:24:29.811Z,20.90
2018-06-25T00:25:01.506Z,20.90
2018-06-25T00:25:33.238Z,20.80
2018-06-25T00:26:04.955Z,20.80
2018-06-25T00:26:36.669Z,20.90
2018-06-25T00:27:08.388Z,20.80
2018-06-25T00:27:40.106Z,20.90
2018-06-25T00:28:11.831Z,20.90
2018-06-25T00:28:43.555Z,20.90
2018-06-25T00:29:15.257Z,20.90
2018-06-25T00:29:46.982Z,20.90
2018-06-25T00:30:18.697Z,20.90
2018-06-25T00:30:50.407Z,20.90
2018-06-25T00:31:22.129Z,20.90
2018-06-25T00:31:53.841Z,20.90
2018-06-25T00:32:25.557Z,20.90
2018-06-25T00:32:57.328Z,20.90
2018-06-25T00:33:29.026Z,20.90
2018-06-25T00:34:00.750Z,20.90
2018-06-25T00:34:32.483Z,20.80
2018-06-25T00:35:04.194Z,20.80
2018-06-25T00:35:35.906Z,20.80
2018-06-25T00:36:07.622Z,20.80
2018-06-25T00:36:39.327Z,20.80
2018-06-25T00:37:11.033Z,20.80
2018-06-25T00:37:42.733Z,20.80
2018-06-25T00:38:14.454Z,20.80
2018-06-25T00:38:46.153Z,20.80
2018-06-25T00:39:17.866Z,20.80
2018-06-25T00:39:49.605Z,20.80
2018-06-25T00:40:21.323Z,20.80
2018-06-25T00:40:53.042Z,20.80
2018-06-25T00:41:24.756Z,20.80
2018-06-25T00:41:56.473Z,20.80
2018-06-25T00:42:28.202Z,20.80
2018-06-25T00:42:59.931Z,20.80
2018-06-25T00:43:31.654Z,20.80
2018-06-25T00:44:03.384Z,20.80
2018-06-25T00:44:35.111Z,20.80
2018-06-25T00:45:06.829Z,20.80
2018-06-25T00:45:38.594Z,20.80
2018-06-25T00:46:10.380Z,20.80
2018-06-25T00:46:42.061Z,20.80
2018-06-25T00:47:13.846Z,20.70
2018-06-25T00:47:45.562Z,20.70
2018-06-25T00:48:17.304Z,20.80
2018-06-25T00:48:49.033Z,20.70
2018-06-25T00:49:20.744Z,20.80
2018-06-25T00:49:52.468Z,20.80
2018-06-25T00:50:24.197Z,20.70
2018-06-25T00:50:55.901Z,20.70
2018-06-25T00:51:27.615Z,20.80
2018-06-25T00:51:59.444Z,20.80
2018-06-25T00:52:31.197Z,20.80
2018-06-25T00:53:02.963Z,20.80
2018-06-25T00:53:34.778Z,20.80
2018-06-25T00:54:06.517Z,20.80
2018-06-25T00:54:38.295Z,20.80
2018-06-25T00:55:09.986Z,20.80
2018-06-25T00:55:41.701Z,20.80
2018-06-25T00:56:13.409Z,20.90
2018-06-25T00:56:45.122Z,20.90
2018-06-25T00:57:16.893Z,20.90
2018-06-25T00:57:48.571Z,20.90
2018-06-25T00:58:20.290Z,20.90
2018-06-25T00:58:51.989Z,20.90
2018-06-25T00:59:23.714Z,20.90
2018-06-25T00:59:55.448Z,20.90
2018-06-25T01:00:27.186Z,20.90
2018-06-25T01:00:58.898Z,20.90
2018-06-25T01:01:30.626Z,20.90
2018-06-25T01:02:02.338Z,20.90
2018-06-25T01:02:34.106Z,20.90
2018-06-25T01:03:05.846Z,20.90
2018-06-25T01:03:37.550Z,20.90
2018-06-25T01:04:09.270Z,20.90
2018-06-25T01:04:40.969Z,20.90
2018-06-25T01:05:12.682Z,20.80
2018-06-25T01:05:44.401Z,20.80
2018-06-25T01:06:16.115Z,20.80
2018-06-25T01:06:47.831Z,20.90
2018-06-25T01:07:19.558Z,20.90
2018-06-25T01:07:51.266Z,20.90
2018-06-25T01:08:22.978Z,20.90
2018-06-25T01:08:54.678Z,20.90
2018-06-25T01:09:26.382Z,20.90
2018-06-25T01:09:58.107Z,20.90
2018-06-25T01:10:29.824Z,20.90
2018-06-25T01:11:01.531Z,21.00
2018-06-25T01:11:33.241Z,20.90
2018-06-25T01:12:04.952Z,20.90
2018-06-25T01:12:36.676Z,20.90
2018-06-25T01:13:08.391Z,20.90
2018-06-25T01:13:40.092Z,20.90
2018-06-25T01:14:11.809Z,20.90
2018-06-25T01:14:43.538Z,20.90
2018-06-25T01:15:15.282Z,20.90
2018-06-25T01:15:46.981Z,20.90
2018-06-25T01:16:18.698Z,20.90
2018-06-25T01:16:50.402Z,20.90
2018-06-25T01:17:22.129Z,20.90
2018-06-25T01:17:53.836Z,20.90
2018-06-25T01:18:25.559Z,20.90
2018-06-25T01:18:57.281Z,20.90
2018-06-25T01:19:28.987Z,21.00
2018-06-25T01:20:00.693Z,21.00
2018-06-25T01:20:32.414Z,21.00
2018-06-25T01:21:04.117Z,21.00
2018-06-25T01:21:35.837Z,21.00
2018-06-25T01:22:07.564Z,21.00
2018-06-25T01:22:39.276Z,21.00
2018-06-25T01:23:10.993Z,21.00
2018-06-25T01:23:42.690Z,20.90
2018-06-25T01:24:14.421Z,20.90
2018-06-25T01:24:46.153Z,21.00
2018-06-25T01:25:17.855Z,21.00
2018-06-25T01:25:49.586Z,21.00
2018-06-25T01:26:21.352Z,21.00
2018-06-25T01:26:53.048Z,21.00
2018-06-25T01:27:24.787Z,21.00
2018-06-25T01:27:56.556Z,21.00
2018-06-25T01:28:28.274Z,21.00
2018-06-25T01:28:59.989Z,21.00
2018-06-25T01:29:31.718Z,20.90
2018-06-25T01:30:03.457Z,20.90
2018-06-25T01:30:35.167Z,20.90
2018-06-25T01:31:06.897Z,20.90
2018-06-25T01:31:38.643Z,20.90
2018-06-25T01:32:10.330Z,20.90
2018-06-25T01:32:42.049Z,20.90
2018-06-25T01:33:13.866Z,20.90
2018-06-25T01:33:45.587Z,20.90
2018-06-25T01:34:17.543Z,20.90
2018-06-25T01:34:49.286Z,20.80
2018-06-25T01:35:21.012Z,20.80
2018-06-25T01:35:52.744Z,20.80
2018-06-25T01:36:24.442Z,20.80
2018-06-25T01:36:56.173Z,20.70
2018-06-25T01:37:27.881Z,20.70
2018-06-25T01:37:59.624Z,20.70
2018-06-25T01:38:31.347Z,20.70
2018-06-25T01:39:03.088Z,20.70
2018-06-25T01:39:34.830Z,20.70
2018-06-25T01:40:06.536Z,20.70
2018-06-25T01:40:38.264Z,20.70
2018-06-25T01:41:10.030Z,20.60
2018-06-25T01:41:41.702Z,20.70
2018-06-25T01:42:13.437Z,20.60
2018-06-25T01:42:45.157Z,20.60
2018-06-25T01:43:16.866Z,20.60
2018-06-25T01:43:48.589Z,20.60
2018-06-25T01:44:20.319Z,20.60
2018-06-25T01:44:52.036Z,20.60
2018-06-25T01:45:23.771Z,20.60
2018-06-25T01:45:55.486Z,20.50
2018-06-25T01:46:27.221Z,20.50
2018-06-25T01:46:59.001Z,20.50
2018-06-25T01:47:30.694Z,20.50
2018-06-25T01:48:02.427Z,20.60
2018-06-25T01:48:34.174Z,20.50
2018-06-25T01:49:05.866Z,20.50
2018-06-25T01:49:37.611Z,20.50
2018-06-25T01:50:09.345Z,20.50
2018-06-25T01:50:41.054Z,20.50
2018-06-25T01:51:12.774Z,20.50
2018-06-25T01:51:44.486Z,20.50
2018-06-25T01:52:16.208Z,20.60
2018-06-25T01:52:47.946Z,20.60
2018-06-25T01:53:19.667Z,20.60
2018-06-25T01:53:51.379Z,20.70
2018-06-25T01:54:23.100Z,20.70
2018-06-25T01:54:54.900Z,20.70
2018-06-25T01:55:26.713Z,20.70
2018-06-25T01:55:58.480Z,20.70
2018-06-25T01:56:30.211Z,20.70
2018-06-25T01:57:01.908Z,20.80
2018-06-25T01:57:33.624Z,20.80
2018-06-25T01:58:05.335Z,20.80
2018-06-25T01:58:37.051Z,20.90
2018-06-25T01:59:08.789Z,20.90
2018-06-25T01:59:40.522Z,20.90
2018-06-25T02:00:12.240Z,20.90
2018-06-25T02:00:43.977Z,20.90
2018-06-25T02:01:15.690Z,20.90
2018-06-25T02:01:47.416Z,20.80
2018-06-25T02:02:19.118Z,20.80
2018-06-25T02:02:50.848Z,20.80
2018-06-25T02:03:22.570Z,20.80
2018-06-25T02:03:54.279Z,20.80
2018-06-25T02:04:26.014Z,20.80
2018-06-25T02:04:57.739Z,20.70
2018-06-25T02:05:29.438Z,20.70
2018-06-25T02:06:01.170Z,20.70
2018-06-25T02:06:32.892Z,20.70
2018-06-25T02:07:04.598Z,20.70
2018-06-25T02:07:36.312Z,20.70
2018-06-25T02:08:08.037Z,20.70
2018-06-25T02:08:39.744Z,20.60
2018-06-25T02:09:11.466Z,20.60
2018-06-25T02:09:43.187Z,20.60
2018-06-25T02:10:14.894Z,20.60
2018-06-25T02:10:46.615Z,20.60
2018-06-25T02:11:18.335Z,20.60
2018-06-25T02:11:50.047Z,20.60
2018-06-25T02:12:21.771Z,20.50
2018-06-25T02:12:53.488Z,20.60
2018-06-25T02:13:25.219Z,20.50
2018-06-25T02:13:56.935Z,20.50
2018-06-25T02:15:00.703Z,20.50
2018-06-25T02:15:32.418Z,20.50
2018-06-25T02:16:04.159Z,20.50
2018-06-25T02:16:35.867Z,20.50
2018-06-25T02:17:07.580Z,20.50
2018-06-25T02:17:39.316Z,20.50
2018-06-25T02:18:11.032Z,20.50
2018-06-25T02:18:42.740Z,20.50
2018-06-25T02:19:14.451Z,20.50
2018-06-25T02:19:46.196Z,20.60
2018-06-25T02:20:17.923Z,20.60
2018-06-25T02:20:49.643Z,20.60
2018-06-25T02:21:21.354Z,20.50
2018-06-25T02:21:53.071Z,20.50
2018-06-25T02:22:24.787Z,20.50
2018-06-25T02:22:56.494Z,20.50
2018-06-25T02:23:28.226Z,20.50
2018-06-25T02:23:59.931Z,20.50
2018-06-25T02:24:31.674Z,20.50
2018-06-25T02:25:03.409Z,20.50
2018-06-25T02:25:35.087Z,20.50
2018-06-25T02:26:06.827Z,20.50
2018-06-25T02:26:38.528Z,20.50
2018-06-25T02:27:10.247Z,20.50
2018-06-25T02:27:41.963Z,20.60
2018-06-25T02:28:13.673Z,20.50
2018-06-25T02:28:45.378Z,20.50
2018-06-25T02:29:17.112Z,20.50
2018-06-25T02:29:48.865Z,20.50
2018-06-25T02:30:20.619Z,20.50
2018-06-25T02:30:52.348Z,20.50
2018-06-25T02:31:24.062Z,20.50
2018-06-25T02:31:55.783Z,20.50
2018-06-25T02:32:27.500Z,20.60
2018-06-25T02:32:59.319Z,20.60
2018-06-25T02:33:30.935Z,20.60
2018-06-25T02:34:02.659Z,20.60
2018-06-25T02:34:34.399Z,20.60
2018-06-25T02:35:06.104Z,20.60
2018-06-25T02:35:37.802Z,20.60
2018-06-25T02:36:09.552Z,20.60
2018-06-25T02:36:41.253Z,20.60
2018-06-25T02:37:12.970Z,20.60
2018-06-25T02:38:16.682Z,20.60
2018-06-25T02:38:48.413Z,20.60
2018-06-25T02:39:20.115Z,20.60
2018-06-25T02:39:51.849Z,20.60
2018-06-25T02:40:23.570Z,20.60
2018-06-25T02:40:55.281Z,20.60
2018-06-25T02:41:26.991Z,20.50
2018-06-25T02:41:58.717Z,20.50
2018-06-25T02:42:30.436Z,20.50
2018-06-25T02:43:02.139Z,20.50
2018-06-25T02:43:33.872Z,20.50
2018-06-25T02:44:05.614Z,20.50
2018-06-25T02:44:37.313Z,20.50
2018-06-25T02:45:09.048Z,20.50
2018-06-25T02:45:40.776Z,20.50
2018-06-25T02:46:12.491Z,20.50
2018-06-25T02:46:44.210Z,20.60
2018-06-25T02:47:15.959Z,20.60
2018-06-25T02:47:47.671Z,20.60
2018-06-25T02:48:19.397Z,20.60
2018-06-25T02:48:51.109Z,20.60
2018-06-25T02:49:22.811Z,20.60
2018-06-25T02:49:54.526Z,20.60
2018-06-25T02:50:26.244Z,20.60
2018-06-25T02:50:57.959Z,20.60
2018-06-25T02:51:29.662Z,20.60
2018-06-25T02:52:01.379Z,20.60
2018-06-25T02:52:33.133Z,20.60
2018-06-25T02:53:04.823Z,20.60
2018-06-25T02:53:36.541Z,20.60
2018-06-25T02:54:08.248Z,20.60
2018-06-25T02:54:40.076Z,20.60
2018-06-25T02:55:11.814Z,20.60
2018-06-25T02:55:43.544Z,20.60
2018-06-25T02:56:15.259Z,20.60
2018-06-25T02:56:46.978Z,20.60
2018-06-25T02:57:18.706Z,20.60
2018-06-25T02:57:50.417Z,20.60
2018-06-25T02:58:22.130Z,20.60
2018-06-25T02:58:53.849Z,20.60
2018-06-25T02:59:25.562Z,20.60
2018-06-25T02:59:57.281Z,20.60
2018-06-25T03:00:28.989Z,20.60
2018-06-25T03:01:00.753Z,20.60
2018-06-25T03:01:32.443Z,20.60
2018-06-25T03:02:04.163Z,20.60
2018-06-25T03:02:35.866Z,20.60
2018-06-25T03:03:07.586Z,20.60
2018-06-25T03:03:39.293Z,20.60
2018-06-25T03:04:11.030Z,20.70
2018-06-25T03:04:42.739Z,20.70
2018-06-25T03:05:14.482Z,20.70
2018-06-25T03:05:46.215Z,20.70
2018-06-25T03:06:17.931Z,20.70
2018-06-25T03:06:49.754Z,20.70
2018-06-25T03:07:21.467Z,20.70
2018-06-25T03:07:53.178Z,20.70
2018-06-25T03:08:24.886Z,20.70
2018-06-25T03:08:56.613Z,20.70
2018-06-25T03:09:28.362Z,20.70
2018-06-25T03:10:00.091Z,20.70
2018-06-25T03:10:31.825Z,20.70
2018-06-25T03:11:03.528Z,20.60
2018-06-25T03:11:35.248Z,20.70
2018-06-25T03:12:06.950Z,20.70
2018-06-25T03:12:38.682Z,20.70
2018-06-25T03:13:10.415Z,20.70
2018-06-25T03:13:42.121Z,20.70
2018-06-25T03:14:13.869Z,20.70
2018-06-25T03:14:45.575Z,20.70
2018-06-25T03:15:17.286Z,20.70
2018-06-25T03:15:48.997Z,20.70
2018-06-25T03:16:20.708Z,20.70
2018-06-25T03:16:52.432Z,20.70
2018-06-25T03:17:24.190Z,20.70
2018-06-25T03:17:55.892Z,20.70
2018-06-25T03:18:27.602Z,20.70
2018-06-25T03:18:59.345Z,20.70
2018-06-25T03:19:31.080Z,20.70
2018-06-25T03:20:02.778Z,20.70
2018-06-25T03:20:34.532Z,20.70
2018-06-25T03:21:06.240Z,20.70
2018-06-25T03:21:37.969Z,20.70
2018-06-25T03:22:09.685Z,20.70
2018-06-25T03:22:41.420Z,20.70
2018-06-25T03:23:13.173Z,20.70
2018-06-25T03:23:44.882Z,20.70
2018-06-25T03:24:16.586Z,20.70
2018-06-25T03:24:48.325Z,20.70
2018-06-25T03:25:20.050Z,20.70
2018-06-25T03:25:51.760Z,20.70
2018-06-25T03:26:23.484Z,20.60
2018-06-25T03:26:55.186Z,20.60
2018-06-25T03:27:26.913Z,20.70
2018-06-25T03:27:58.617Z,20.70
2018-06-25T03:28:30.327Z,20.70
2018-06-25T03:29:02.059Z,20.70
2018-06-25T03:29:33.787Z,20.60
2018-06-25T03:30:05.495Z,20.70
2018-06-25T03:30:37.261Z,20.70
2018-06-25T03:31:08.970Z,20.70
2018-06-25T03:31:40.686Z,20.70
2018-06-25T03:32:12.389Z,20.70
2018-06-25T03:32:44.098Z,20.70
2018-06-25T03:33:15.816Z,20.70
2018-06-25T03:33:47.520Z,20.70
2018-06-25T03:34:19.224Z,20.70
2018-06-25T03:34:50.937Z,20.70
2018-06-25T03:35:22.644Z,20.70
2018-06-25T03:35:54.427Z,20.70
2018-06-25T03:36:26.134Z,20.70
2018-06-25T03:36:57.848Z,20.70
2018-06-25T03:37:29.589Z,20.70
2018-06-25T03:38:01.300Z,20.70
2018-06-25T03:38:33.066Z,20.70
2018-06-25T03:39:04.726Z,20.80
2018-06-25T03:39:36.440Z,20.70
2018-06-25T03:40:08.171Z,20.70
2018-06-25T03:40:39.929Z,20.70
2018-06-25T03:41:11.630Z,20.70
2018-06-25T03:41:43.371Z,20.70
2018-06-25T03:42:15.074Z,20.70
2018-06-25T03:42:46.794Z,20.70
2018-06-25T03:43:18.523Z,20.70
2018-06-25T03:43:50.214Z,20.70
2018-06-25T03:44:21.945Z,20.80
2018-06-25T03:44:53.642Z,20.70
2018-06-25T03:45:25.366Z,20.70
2018-06-25T03:45:57.147Z,20.70
2018-06-25T03:46:28.918Z,20.70
2018-06-25T03:47:00.634Z,20.70
2018-06-25T03:47:32.355Z,20.70
2018-06-25T03:48:04.078Z,20.70
2018-06-25T03:48:35.786Z,20.70
2018-06-25T03:49:07.511Z,20.70
2018-06-25T03:49:39.231Z,20.70
2018-06-25T03:50:10.958Z,20.70
2018-06-25T03:50:42.697Z,20.70
2018-06-25T03:51:14.412Z,20.70
2018-06-25T03:51:46.131Z,20.70
2018-06-25T03:52:17.858Z,20.70
2018-06-25T03:52:49.574Z,20.70
2018-06-25T03:53:21.307Z,20.70
2018-06-25T03:53:53.030Z,20.70
2018-06-25T03:54:24.753Z,20.70
2018-06-25T03:54:56.453Z,20.70
2018-06-25T03:55:28.178Z,20.70
2018-06-25T03:55:59.885Z,20.70
2018-06-25T03:56:31.603Z,20.70
2018-06-25T03:57:03.315Z,20.70
2018-06-25T03:57:35.037Z,20.70
2018-06-25T03:58:06.746Z,20.70
2018-06-25T03:58:38.502Z,20.70
2018-06-25T03:59:10.277Z,20.70
2018-06-25T03:59:41.970Z,20.70
2018-06-25T04:00:13.713Z,20.70
2018-06-25T04:00:45.456Z,20.70
2018-06-25T04:01:17.154Z,20.70
2018-06-25T04:01:48.869Z,20.70
2018-06-25T04:02:20.638Z,20.70
2018-06-25T04:02:52.351Z,20.70
2018-06-25T04:03:24.079Z,20.70
2018-06-25T04:03:55.814Z,20.70
2018-06-25T04:04:27.509Z,20.70
2018-06-25T04:04:59.273Z,20.70
2018-06-25T04:05:30.983Z,20.70
2018-06-25T04:06:02.698Z,20.70
2018-06-25T04:06:34.426Z,20.70
2018-06-25T04:07:06.138Z,20.70
2018-06-25T04:07:37.861Z,20.70
2018-06-25T04:08:09.566Z,20.70
2018-06-25T04:08:41.297Z,20.70
2018-06-25T04:09:13.018Z,20.70
2018-06-25T04:09:44.722Z,20.70
2018-06-25T04:10:16.437Z,20.70
2018-06-25T04:10:48.181Z,20.70
2018-06-25T04:11:19.892Z,20.80
2018-06-25T04:11:51.604Z,20.80
2018-06-25T04:12:23.310Z,20.80
2018-06-25T04:12:55.031Z,20.90
2018-06-25T04:13:26.773Z,20.90
2018-06-25T04:13:58.578Z,20.90
2018-06-25T04:14:30.300Z,20.90
2018-06-25T04:15:02.027Z,20.90
2018-06-25T04:15:33.757Z,20.90
2018-06-25T04:16:05.507Z,20.90
2018-06-25T04:16:37.233Z,21.00
2018-06-25T04:17:09.020Z,21.00
2018-06-25T04:17:40.717Z,21.00
2018-06-25T04:18:12.452Z,21.00
2018-06-25T04:18:44.185Z,21.00
2018-06-25T04:19:15.901Z,21.00
2018-06-25T04:19:47.628Z,21.00
2018-06-25T04:20:19.335Z,21.00
2018-06-25T04:20:51.052Z,20.90
2018-06-25T04:21:22.802Z,20.90
2018-06-25T04:21:54.511Z,21.00
2018-06-25T04:22:26.238Z,21.00
2018-06-25T04:22:57.959Z,21.00
2018-06-25T04:23:29.724Z,21.00
2018-06-25T04:24:01.441Z,21.00
2018-06-25T04:24:33.168Z,21.00
2018-06-25T04:25:04.880Z,21.00
2018-06-25T04:25:36.601Z,21.10
2018-06-25T04:26:08.397Z,21.10
2018-06-25T04:26:40.136Z,21.00
2018-06-25T04:27:11.855Z,21.00
2018-06-25T04:27:43.598Z,21.10
2018-06-25T04:28:15.306Z,21.00
2018-06-25T04:28:47.217Z,21.00
2018-06-25T04:29:18.889Z,21.00
2018-06-25T04:29:50.614Z,21.00
2018-06-25T04:30:22.337Z,21.10
2018-06-25T04:30:54.030Z,21.10
2018-06-25T04:31:25.743Z,21.10
2018-06-25T04:31:57.477Z,21.10
2018-06-25T04:32:29.214Z,21.10
2018-06-25T04:33:00.935Z,21.10
2018-06-25T04:33:32.658Z,21.00
2018-06-25T04:34:04.409Z,21.00
2018-06-25T04:34:36.127Z,20.90
2018-06-25T04:35:07.864Z,20.90
2018-06-25T04:35:39.614Z,20.80
2018-06-25T04:36:11.332Z,20.80
2018-06-25T04:36:43.060Z,20.70
2018-06-25T04:37:14.797Z,20.70
2018-06-25T04:37:46.508Z,20.70
2018-06-25T04:38:18.233Z,20.70
2018-06-25T04:38:49.947Z,20.70
2018-06-25T04:39:21.678Z,20.70
2018-06-25T04:39:53.424Z,20.60
2018-06-25T04:40:25.118Z,20.60
2018-06-25T04:40:56.872Z,20.50
2018-06-25T04:41:28.592Z,20.50
2018-06-25T04:42:00.305Z,20.40
2018-06-25T04:42:32.022Z,20.40
2018-06-25T04:43:03.771Z,20.40
2018-06-25T04:43:35.488Z,20.30
2018-06-25T04:44:07.198Z,20.30
2018-06-25T04:44:38.935Z,20.30
2018-06-25T04:45:10.650Z,20.30
2018-06-25T04:45:42.373Z,20.20
2018-06-25T04:46:14.080Z,20.30
2018-06-25T04:46:45.801Z,20.20
2018-06-25T04:47:17.551Z,20.20
2018-06-25T04:47:49.258Z,20.20
2018-06-25T04:48:21.005Z,20.20
2018-06-25T04:48:52.707Z,20.20
2018-06-25T04:49:24.426Z,20.20
2018-06-25T04:49:56.151Z,20.30
2018-06-25T04:50:27.923Z,20.30
2018-06-25T04:50:59.582Z,20.30
2018-06-25T04:51:31.341Z,20.40
2018-06-25T04:52:03.037Z,20.40
2018-06-25T04:52:34.754Z,20.40
2018-06-25T04:53:06.495Z,20.50
2018-06-25T04:53:38.218Z,20.50
2018-06-25T04:54:09.949Z,20.50
2018-06-25T04:54:41.676Z,20.60
2018-06-25T04:55:13.388Z,20.60
2018-06-25T04:55:45.113Z,20.60
2018-06-25T04:56:16.835Z,20.60
2018-06-25T04:56:48.555Z,20.60
2018-06-25T04:57:20.273Z,20.60
2018-06-25T04:57:51.988Z,20.60
2018-06-25T04:58:23.698Z,20.60
2018-06-25T04:58:55.441Z,20.60
2018-06-25T04:59:27.146Z,20.50
2018-06-25T04:59:58.887Z,20.50
2018-06-25T05:00:30.603Z,20.60
2018-06-25T05:01:02.308Z,20.50
2018-06-25T05:01:34.069Z,20.60
2018-06-25T05:02:05.768Z,20.60
2018-06-25T05:02:37.482Z,20.60
2018-06-25T05:03:09.282Z,20.60
2018-06-25T05:03:40.992Z,20.60
2018-06-25T05:04:12.717Z,20.60
2018-06-25T05:04:44.441Z,20.60
2018-06-25T05:05:16.166Z,20.60
2018-06-25T05:05:47.891Z,20.60
2018-06-25T05:06:19.618Z,20.60
2018-06-25T05:06:51.309Z,20.50
2018-06-25T05:07:23.017Z,20.50
2018-06-25T05:07:54.762Z,20.40
2018-06-25T05:08:26.480Z,20.40
2018-06-25T05:08:58.303Z,20.40
2018-06-25T05:09:29.920Z,20.40
2018-06-25T05:10:01.631Z,20.40
2018-06-25T05:10:33.335Z,20.40
2018-06-25T05:11:05.067Z,20.50
2018-06-25T05:11:36.774Z,20.50
2018-06-25T05:12:08.492Z,20.50
2018-06-25T05:12:40.203Z,20.40
2018-06-25T05:13:11.939Z,20.40
2018-06-25T05:13:43.644Z,20.40
2018-06-25T05:14:15.363Z,20.40
2018-06-25T05:14:47.105Z,20.40
2018-06-25T05:15:18.818Z,20.50
2018-06-25T05:15:50.530Z,20.50
2018-06-25T05:16:22.250Z,20.50
2018-06-25T05:16:53.983Z,20.60
2018-06-25T05:17:25.698Z,20.60
2018-06-25T05:17:57.409Z,20.60
2018-06-25T05:18:29.133Z,20.60
2018-06-25T05:19:00.855Z,20.60
2018-06-25T05:19:32.562Z,20.70
2018-06-25T05:20:04.279Z,20.70
2018-06-25T05:20:36.016Z,20.70
2018-06-25T05:21:07.717Z,20.70
2018-06-25T05:21:39.455Z,20.70
2018-06-25T05:22:11.152Z,20.70
2018-06-25T05:22:42.892Z,20.60
2018-06-25T05:23:14.629Z,20.60
2018-06-25T05:23:46.338Z,20.60
2018-06-25T05:24:18.057Z,20.60
2018-06-25T05:24:49.764Z,20.60
2018-06-25T05:25:21.477Z,20.60
2018-06-25T05:25:53.216Z,20.60
2018-06-25T05:26:24.936Z,20.60
2018-06-25T05:26:56.649Z,20.70
2018-06-25T05:27:28.459Z,20.70
2018-06-25T05:28:00.166Z,20.70
2018-06-25T05:28:31.870Z,20.70
2018-06-25T05:29:03.621Z,20.70
2018-06-25T05:29:35.314Z,20.70
2018-06-25T05:30:07.038Z,20.70
2018-06-25T05:30:38.767Z,20.70
2018-06-25T05:31:10.478Z,20.70
2018-06-25T05:31:42.195Z,20.70
2018-06-25T05:32:13.915Z,20.70
2018-06-25T05:32:45.643Z,20.70
2018-06-25T05:33:17.376Z,20.70
2018-06-25T05:33:49.081Z,20.70
2018-06-25T05:34:20.810Z,20.70
2018-06-25T05:34:52.583Z,20.80
2018-06-25T05:35:24.260Z,20.80
2018-06-25T05:35:55.971Z,20.80
2018-06-25T05:36:27.692Z,20.80
2018-06-25T05:36:59.410Z,20.80
2018-06-25T05:37:31.123Z,20.80
2018-06-25T05:38:02.836Z,20.80
2018-06-25T05:38:34.575Z,20.80
2018-06-25T05:39:06.314Z,20.80
2018-06-25T05:39:38.086Z,20.80
2018-06-25T05:40:09.785Z,20.80
2018-06-25T05:40:41.530Z,20.80
2018-06-25T05:41:13.239Z,20.80
2018-06-25T05:41:44.965Z,20.80
2018-06-25T05:42:16.690Z,20.80
2018-06-25T05:42:48.415Z,20.80
2018-06-25T05:43:20.164Z,20.80
2018-06-25T05:43:51.856Z,20.80
2018-06-25T05:44:23.585Z,20.80
2018-06-25T05:44:55.304Z,20.80
2018-06-25T05:45:27.026Z,20.80
2018-06-25T05:45:58.751Z,20.80
2018-06-25T05:46:30.508Z,20.80
2018-06-25T05:47:02.202Z,20.80
2018-06-25T05:47:33.928Z,20.80
2018-06-25T05:48:05.676Z,20.90
2018-06-25T05:48:37.397Z,20.80
2018-06-25T05:49:09.142Z,20.80
2018-06-25T05:49:40.883Z,20.90
2018-06-25T05:50:12.585Z,20.90
2018-06-25T05:50:44.316Z,20.80
2018-06-25T05:51:16.031Z,20.80
2018-06-25T05:51:47.746Z,20.80
2018-06-25T05:52:19.507Z,20.80
2018-06-25T05:52:51.242Z,20.80
2018-06-25T05:53:22.956Z,20.80
2018-06-25T05:53:54.705Z,20.80
2018-06-25T05:54:26.398Z,20.70
2018-06-25T05:54:58.122Z,20.70
2018-06-25T05:55:29.860Z,20.70
2018-06-25T05:56:01.575Z,20.70
2018-06-25T05:56:33.298Z,20.70
2018-06-25T05:57:05.005Z,20.70
2018-06-25T05:57:36.752Z,20.80
2018-06-25T05:58:08.469Z,20.80
2018-06-25T05:58:40.195Z,20.80
2018-06-25T05:59:11.898Z,20.90
2018-06-25T05:59:43.634Z,20.90
2018-06-25T06:00:15.344Z,20.90
2018-06-25T06:00:47.043Z,20.90
2018-06-25T06:01:18.789Z,20.90
2018-06-25T06:01:50.510Z,20.90
2018-06-25T06:02:22.271Z,20.90
2018-06-25T06:02:54.005Z,20.90
2018-06-25T06:03:25.704Z,20.90
2018-06-25T06:03:57.433Z,20.90
2018-06-25T06:04:29.148Z,20.90
2018-06-25T06:05:00.852Z,20.90
2018-06-25T06:05:32.581Z,20.90
2018-06-25T06:06:04.318Z,20.90
2018-06-25T06:06:36.027Z,20.90
2018-06-25T06:07:07.799Z,20.80
2018-06-25T06:07:39.524Z,20.90
2018-06-25T06:08:11.260Z,20.90
2018-06-25T06:08:42.990Z,20.90
2018-06-25T06:09:14.715Z,20.90
2018-06-25T06:09:46.433Z,20.90
2018-06-25T06:10:18.163Z,20.90
2018-06-25T06:10:49.874Z,20.90
2018-06-25T06:11:21.588Z,20.90
2018-06-25T06:11:53.306Z,20.90
2018-06-25T06:12:25.059Z,20.90
2018-06-25T06:12:56.775Z,20.90
2018-06-25T06:13:28.512Z,20.90
2018-06-25T06:14:00.232Z,20.90
2018-06-25T06:14:31.974Z,20.80
2018-06-25T06:15:03.694Z,20.80
2018-06-25T06:15:35.412Z,20.80
2018-06-25T06:16:07.140Z,20.80
2018-06-25T06:16:38.855Z,20.80
2018-06-25T06:17:10.574Z,20.80
2018-06-25T06:17:42.288Z,20.90
2018-06-25T06:18:13.997Z,20.90
2018-06-25T06:18:45.736Z,20.80
2018-06-25T06:19:17.454Z,20.80
2018-06-25T06:19:49.212Z,20.80
2018-06-25T06:20:20.954Z,20.80
2018-06-25T06:20:52.679Z,20.80
2018-06-25T06:21:24.373Z,20.80
2018-06-25T06:21:56.162Z,20.90
2018-06-25T06:22:27.891Z,20.90
2018-06-25T06:22:59.595Z,20.90
2018-06-25T06:23:31.345Z,20.90
2018-06-25T06:24:03.066Z,20.90
2018-06-25T06:24:34.785Z,20.90
2018-06-25T06:25:06.503Z,20.90
2018-06-25T06:25:38.205Z,20.90
2018-06-25T06:26:09.932Z,20.90
2018-06-25T06:26:41.649Z,21.00
2018-06-25T06:27:13.355Z,20.90
2018-06-25T06:27:45.101Z,20.90
2018-06-25T06:28:16.791Z,20.90
2018-06-25T06:28:48.546Z,20.90
2018-06-25T06:29:20.300Z,20.90
2018-06-25T06:29:51.994Z,20.90
2018-06-25T06:30:23.710Z,20.90
2018-06-25T06:30:55.440Z,21.00
2018-06-25T06:31:27.185Z,21.00
2018-06-25T06:31:58.959Z,20.90
2018-06-25T06:32:30.651Z,20.90
2018-06-25T06:33:02.362Z,20.90
2018-06-25T06:33:34.097Z,20.90
2018-06-25T06:34:05.807Z,20.90
2018-06-25T06:34:37.518Z,20.90
2018-06-25T06:35:09.247Z,20.90
2018-06-25T06:35:40.968Z,20.90
2018-06-25T06:36:12.673Z,20.90
2018-06-25T06:36:44.379Z,20.90
2018-06-25T06:37:16.092Z,21.00
2018-06-25T06:37:47.807Z,20.90
2018-06-25T06:38:19.519Z,20.90
2018-06-25T06:38:51.239Z,21.00
2018-06-25T06:39:22.975Z,21.00
2018-06-25T06:39:54.743Z,21.00
2018-06-25T06:40:26.418Z,21.00
2018-06-25T06:40:58.137Z,21.00
2018-06-25T06:41:29.846Z,21.00
2018-06-25T06:42:01.583Z,20.90
2018-06-25T06:42:33.302Z,20.90
2018-06-25T06:43:05.073Z,20.90
2018-06-25T06:43:36.807Z,20.90
2018-06-25T06:44:08.528Z,20.90
2018-06-25T06:44:40.250Z,20.90
2018-06-25T06:45:11.989Z,20.90
2018-06-25T06:45:43.698Z,20.90
2018-06-25T06:46:15.432Z,20.90
2018-06-25T06:46:47.169Z,20.90
2018-06-25T06:47:18.900Z,20.90
2018-06-25T06:47:50.630Z,20.90
2018-06-25T06:48:22.345Z,20.90
2018-06-25T06:48:54.058Z,20.90
2018-06-25T06:49:25.775Z,21.00